sensor_id;sensor_type;location;lat;lon;timestamp;P1;durP1;ratioP1;P2;durP2;ratioP2
7823;SDS011;3957;48.61947800;9.05303100;2024-01-06T00:00:58;3.55;;;2.42;;
7823;SDS011;3957;48.61947800;9.05303100;2024-01-06T00:02:00;3.30;;;2.27;;
7823;SDS011;3957;48.61947800;9.05303100;2024-01-06T00:03:03;2.70;;;2.35;;
7823;SDS011;3957;48.61947800;9.05303100;2024-01-06T00:04:04;5.60;;;2.60;;
7823;SDS011;3957;48.61947800;9.05303100;2024-01-06T00:05:06;2.97;;;2.20;;
7823;SDS011;3957;48.61947800;9.05303100;2024-01-06T00:06:11;3.47;;;2.63;;
7823;SDS011;3957;48.61947800;9.05303100;2024-01-06T00:07:13;2.83;;;2.00;;
7823;SDS011;3957;48.61947800;9.05303100;2024-01-06T00:08:15;3.45;;;2.40;;
7823;SDS011;3957;48.61947800;9.05303100;2024-01-06T00:09:17;3.17;;;2.50;;
7823;SDS011;3957;48.61947800;9.05303100;2024-01-06T00:10:19;3.95;;;2.83;;
7823;SDS011;3957;48.61947800;9.05303100;2024-01-06T00:11:20;4.38;;;2.50;;
7823;SDS011;3957;48.61947800;9.05303100;2024-01-06T00:12:23;4.10;;;2.63;;
7823;SDS011;3957;48.61947800;9.05303100;2024-01-06T00:13:25;4.40;;;2.40;;
7823;SDS011;3957;48.61947800;9.05303100;2024-01-06T00:14:26;3.47;;;2.20;;
7823;SDS011;3957;48.61947800;9.05303100;2024-01-06T00:15:28;2.83;;;2.38;;
7823;SDS011;3957;48.61947800;9.05303100;2024-01-06T00:16:29;4.32;;;2.28;;
7823;SDS011;3957;48.61947800;9.05303100;2024-01-06T00:17:31;2.33;;;2.08;;
7823;SDS011;3957;48.61947800;9.05303100;2024-01-06T00:18:33;4.03;;;2.53;;
7823;SDS011;3957;48.61947800;9.05303100;2024-01-06T00:19:34;3.67;;;2.40;;
7823;SDS011;3957;48.61947800;9.05303100;2024-01-06T00:20:36;3.03;;;2.05;;
7823;SDS011;3957;48.61947800;9.05303100;2024-01-06T00:21:38;2.95;;;2.28;;
7823;SDS011;3957;48.61947800;9.05303100;2024-01-06T00:22:40;4.57;;;2.53;;
7823;SDS011;3957;48.61947800;9.05303100;2024-01-06T00:23:43;4.05;;;2.22;;
7823;SDS011;3957;48.61947800;9.05303100;2024-01-06T00:24:45;3.60;;;2.65;;
7823;SDS011;3957;48.61947800;9.05303100;2024-01-06T00:25:47;4.72;;;2.60;;
7823;SDS011;3957;48.61947800;9.05303100;2024-01-06T00:26:48;3.33;;;2.40;;
7823;SDS011;3957;48.61947800;9.05303100;2024-01-06T00:27:50;3.97;;;2.60;;
7823;SDS011;3957;48.61947800;9.05303100;2024-01-06T00:28:51;3.73;;;2.30;;
7823;SDS011;3957;48.61947800;9.05303100;2024-01-06T00:29:53;2.65;;;2.30;;
7823;SDS011;3957;48.61947800;9.05303100;2024-01-06T00:30:54;3.33;;;2.30;;
7823;SDS011;3957;48.61947800;9.05303100;2024-01-06T00:31:56;3.53;;;2.15;;
7823;SDS011;3957;48.61947800;9.05303100;2024-01-06T00:32:58;3.47;;;2.78;;
7823;SDS011;3957;48.61947800;9.05303100;2024-01-06T00:33:59;5.75;;;2.80;;
7823;SDS011;3957;48.61947800;9.05303100;2024-01-06T00:35:01;4.03;;;2.38;;
7823;SDS011;3957;48.61947800;9.05303100;2024-01-06T00:36:03;3.28;;;2.40;;
7823;SDS011;3957;48.61947800;9.05303100;2024-01-06T00:37:06;3.45;;;2.30;;
7823;SDS011;3957;48.61947800;9.05303100;2024-01-06T00:38:07;4.55;;;2.33;;
7823;SDS011;3957;48.61947800;9.05303100;2024-01-06T00:39:09;3.80;;;3.28;;
7823;SDS011;3957;48.61947800;9.05303100;2024-01-06T00:40:10;5.53;;;3.22;;
7823;SDS011;3957;48.61947800;9.05303100;2024-01-06T00:41:13;4.88;;;3.08;;
7823;SDS011;3957;48.61947800;9.05303100;2024-01-06T00:42:15;3.70;;;3.28;;
7823;SDS011;3957;48.61947800;9.05303100;2024-01-06T00:43:16;5.18;;;3.38;;
7823;SDS011;3957;48.61947800;9.05303100;2024-01-06T00:44:18;3.90;;;2.75;;
7823;SDS011;3957;48.61947800;9.05303100;2024-01-06T00:45:20;3.45;;;2.70;;
7823;SDS011;3957;48.61947800;9.05303100;2024-01-06T00:46:22;4.47;;;3.03;;
7823;SDS011;3957;48.61947800;9.05303100;2024-01-06T00:47:23;3.83;;;2.65;;
7823;SDS011;3957;48.61947800;9.05303100;2024-01-06T00:48:25;4.10;;;2.80;;
7823;SDS011;3957;48.61947800;9.05303100;2024-01-06T00:49:27;4.25;;;2.80;;
7823;SDS011;3957;48.61947800;9.05303100;2024-01-06T00:50:28;6.15;;;2.88;;
7823;SDS011;3957;48.61947800;9.05303100;2024-01-06T00:51:30;4.35;;;2.97;;
7823;SDS011;3957;48.61947800;9.05303100;2024-01-06T00:52:32;3.63;;;2.55;;
7823;SDS011;3957;48.61947800;9.05303100;2024-01-06T00:53:33;4.38;;;2.50;;
7823;SDS011;3957;48.61947800;9.05303100;2024-01-06T00:54:35;3.53;;;2.30;;
7823;SDS011;3957;48.61947800;9.05303100;2024-01-06T00:55:37;3.47;;;2.63;;
7823;SDS011;3957;48.61947800;9.05303100;2024-01-06T00:56:38;3.97;;;2.90;;
7823;SDS011;3957;48.61947800;9.05303100;2024-01-06T00:57:40;4.88;;;2.63;;
7823;SDS011;3957;48.61947800;9.05303100;2024-01-06T00:58:42;4.55;;;2.70;;
7823;SDS011;3957;48.61947800;9.05303100;2024-01-06T00:59:43;3.70;;;2.78;;
7823;SDS011;3957;48.61947800;9.05303100;2024-01-06T01:00:45;4.88;;;2.65;;
7823;SDS011;3957;48.61947800;9.05303100;2024-01-06T01:01:46;4.32;;;2.60;;
7823;SDS011;3957;48.61947800;9.05303100;2024-01-06T01:02:48;4.50;;;2.90;;
7823;SDS011;3957;48.61947800;9.05303100;2024-01-06T01:03:50;4.70;;;2.50;;
7823;SDS011;3957;48.61947800;9.05303100;2024-01-06T01:04:51;4.43;;;2.65;;
7823;SDS011;3957;48.61947800;9.05303100;2024-01-06T01:05:54;2.70;;;2.30;;
7823;SDS011;3957;48.61947800;9.05303100;2024-01-06T01:06:55;2.42;;;2.03;;
7823;SDS011;3957;48.61947800;9.05303100;2024-01-06T01:07:57;2.85;;;1.80;;
7823;SDS011;3957;48.61947800;9.05303100;2024-01-06T01:08:58;2.50;;;1.98;;
7823;SDS011;3957;48.61947800;9.05303100;2024-01-06T01:10:00;1.95;;;1.70;;
7823;SDS011;3957;48.61947800;9.05303100;2024-01-06T01:11:02;5.03;;;1.70;;
7823;SDS011;3957;48.61947800;9.05303100;2024-01-06T01:12:03;2.55;;;1.75;;
7823;SDS011;3957;48.61947800;9.05303100;2024-01-06T01:13:05;2.38;;;1.60;;
7823;SDS011;3957;48.61947800;9.05303100;2024-01-06T01:14:07;2.05;;;1.50;;
7823;SDS011;3957;48.61947800;9.05303100;2024-01-06T01:15:09;2.15;;;1.80;;
7823;SDS011;3957;48.61947800;9.05303100;2024-01-06T01:16:10;2.42;;;1.80;;
7823;SDS011;3957;48.61947800;9.05303100;2024-01-06T01:17:12;3.25;;;1.75;;
7823;SDS011;3957;48.61947800;9.05303100;2024-01-06T01:18:13;2.83;;;1.92;;
7823;SDS011;3957;48.61947800;9.05303100;2024-01-06T01:19:15;3.28;;;1.83;;
7823;SDS011;3957;48.61947800;9.05303100;2024-01-06T01:20:17;3.05;;;2.00;;
7823;SDS011;3957;48.61947800;9.05303100;2024-01-06T01:21:19;2.53;;;1.80;;
7823;SDS011;3957;48.61947800;9.05303100;2024-01-06T01:22:21;2.00;;;1.40;;
7823;SDS011;3957;48.61947800;9.05303100;2024-01-06T01:23:22;2.80;;;2.03;;
7823;SDS011;3957;48.61947800;9.05303100;2024-01-06T01:24:24;2.58;;;1.90;;
7823;SDS011;3957;48.61947800;9.05303100;2024-01-06T01:25:25;4.07;;;1.80;;
7823;SDS011;3957;48.61947800;9.05303100;2024-01-06T01:26:27;2.50;;;1.80;;
7823;SDS011;3957;48.61947800;9.05303100;2024-01-06T01:27:28;3.10;;;1.90;;
7823;SDS011;3957;48.61947800;9.05303100;2024-01-06T01:28:30;2.15;;;1.73;;
7823;SDS011;3957;48.61947800;9.05303100;2024-01-06T01:29:31;4.63;;;2.00;;
7823;SDS011;3957;48.61947800;9.05303100;2024-01-06T01:30:33;2.60;;;1.90;;
7823;SDS011;3957;48.61947800;9.05303100;2024-01-06T01:31:35;2.00;;;1.80;;
7823;SDS011;3957;48.61947800;9.05303100;2024-01-06T01:32:37;3.22;;;1.88;;
7823;SDS011;3957;48.61947800;9.05303100;2024-01-06T01:33:38;2.85;;;1.70;;
7823;SDS011;3957;48.61947800;9.05303100;2024-01-06T01:34:40;3.58;;;1.90;;
7823;SDS011;3957;48.61947800;9.05303100;2024-01-06T01:35:42;2.87;;;1.70;;
7823;SDS011;3957;48.61947800;9.05303100;2024-01-06T01:36:43;1.95;;;1.77;;
7823;SDS011;3957;48.61947800;9.05303100;2024-01-06T01:37:45;2.08;;;1.63;;
7823;SDS011;3957;48.61947800;9.05303100;2024-01-06T01:38:46;2.10;;;1.60;;
7823;SDS011;3957;48.61947800;9.05303100;2024-01-06T01:39:48;2.33;;;1.65;;
7823;SDS011;3957;48.61947800;9.05303100;2024-01-06T01:40:50;2.40;;;1.90;;
7823;SDS011;3957;48.61947800;9.05303100;2024-01-06T01:41:51;2.35;;;1.80;;
7823;SDS011;3957;48.61947800;9.05303100;2024-01-06T01:42:52;2.67;;;1.60;;
7823;SDS011;3957;48.61947800;9.05303100;2024-01-06T01:43:54;2.80;;;1.70;;
7823;SDS011;3957;48.61947800;9.05303100;2024-01-06T01:44:59;2.15;;;1.50;;
7823;SDS011;3957;48.61947800;9.05303100;2024-01-06T01:46:01;2.67;;;1.70;;
7823;SDS011;3957;48.61947800;9.05303100;2024-01-06T01:47:04;3.60;;;1.80;;
7823;SDS011;3957;48.61947800;9.05303100;2024-01-06T01:48:06;2.28;;;1.77;;
7823;SDS011;3957;48.61947800;9.05303100;2024-01-06T01:49:08;4.05;;;2.05;;
7823;SDS011;3957;48.61947800;9.05303100;2024-01-06T01:50:10;2.88;;;1.63;;
7823;SDS011;3957;48.61947800;9.05303100;2024-01-06T01:51:13;3.20;;;1.65;;
7823;SDS011;3957;48.61947800;9.05303100;2024-01-06T01:52:15;2.05;;;1.75;;
7823;SDS011;3957;48.61947800;9.05303100;2024-01-06T01:53:17;3.80;;;2.10;;
7823;SDS011;3957;48.61947800;9.05303100;2024-01-06T01:54:19;4.22;;;1.70;;
7823;SDS011;3957;48.61947800;9.05303100;2024-01-06T01:55:21;3.00;;;1.70;;
7823;SDS011;3957;48.61947800;9.05303100;2024-01-06T01:56:23;2.30;;;1.60;;
7823;SDS011;3957;48.61947800;9.05303100;2024-01-06T01:57:25;2.45;;;1.70;;
7823;SDS011;3957;48.61947800;9.05303100;2024-01-06T01:58:27;3.50;;;1.63;;
7823;SDS011;3957;48.61947800;9.05303100;2024-01-06T01:59:29;2.95;;;2.03;;
7823;SDS011;3957;48.61947800;9.05303100;2024-01-06T02:00:31;1.73;;;1.33;;
7823;SDS011;3957;48.61947800;9.05303100;2024-01-06T02:01:33;4.45;;;2.00;;
7823;SDS011;3957;48.61947800;9.05303100;2024-01-06T02:02:35;3.78;;;1.88;;
7823;SDS011;3957;48.61947800;9.05303100;2024-01-06T02:03:36;2.80;;;1.40;;
7823;SDS011;3957;48.61947800;9.05303100;2024-01-06T02:04:38;1.88;;;1.58;;
7823;SDS011;3957;48.61947800;9.05303100;2024-01-06T02:05:40;2.20;;;1.77;;
7823;SDS011;3957;48.61947800;9.05303100;2024-01-06T02:06:42;1.92;;;1.45;;
7823;SDS011;3957;48.61947800;9.05303100;2024-01-06T02:07:43;1.60;;;1.50;;
7823;SDS011;3957;48.61947800;9.05303100;2024-01-06T02:08:45;3.05;;;1.40;;
7823;SDS011;3957;48.61947800;9.05303100;2024-01-06T02:09:47;2.70;;;1.60;;
7823;SDS011;3957;48.61947800;9.05303100;2024-01-06T02:10:49;3.15;;;1.70;;
7823;SDS011;3957;48.61947800;9.05303100;2024-01-06T02:11:50;2.67;;;1.67;;
7823;SDS011;3957;48.61947800;9.05303100;2024-01-06T02:12:52;1.35;;;1.20;;
7823;SDS011;3957;48.61947800;9.05303100;2024-01-06T02:13:53;2.47;;;1.50;;
7823;SDS011;3957;48.61947800;9.05303100;2024-01-06T02:14:55;1.50;;;1.40;;
7823;SDS011;3957;48.61947800;9.05303100;2024-01-06T02:15:56;1.63;;;1.50;;
7823;SDS011;3957;48.61947800;9.05303100;2024-01-06T02:16:58;4.05;;;1.67;;
7823;SDS011;3957;48.61947800;9.05303100;2024-01-06T02:17:59;1.30;;;1.20;;
7823;SDS011;3957;48.61947800;9.05303100;2024-01-06T02:19:01;2.78;;;1.58;;
7823;SDS011;3957;48.61947800;9.05303100;2024-01-06T02:20:04;2.05;;;1.40;;
7823;SDS011;3957;48.61947800;9.05303100;2024-01-06T02:21:08;3.72;;;1.50;;
7823;SDS011;3957;48.61947800;9.05303100;2024-01-06T02:22:10;2.60;;;1.40;;
7823;SDS011;3957;48.61947800;9.05303100;2024-01-06T02:23:12;1.50;;;1.40;;
7823;SDS011;3957;48.61947800;9.05303100;2024-01-06T02:24:14;2.50;;;1.58;;
7823;SDS011;3957;48.61947800;9.05303100;2024-01-06T02:25:15;1.80;;;1.30;;
7823;SDS011;3957;48.61947800;9.05303100;2024-01-06T02:26:17;2.55;;;1.48;;
7823;SDS011;3957;48.61947800;9.05303100;2024-01-06T02:27:19;1.98;;;1.55;;
7823;SDS011;3957;48.61947800;9.05303100;2024-01-06T02:28:20;3.22;;;1.50;;
7823;SDS011;3957;48.61947800;9.05303100;2024-01-06T02:29:22;2.53;;;1.30;;
7823;SDS011;3957;48.61947800;9.05303100;2024-01-06T02:30:25;1.85;;;1.30;;
7823;SDS011;3957;48.61947800;9.05303100;2024-01-06T02:31:27;3.05;;;1.52;;
7823;SDS011;3957;48.61947800;9.05303100;2024-01-06T02:32:29;2.25;;;1.50;;
7823;SDS011;3957;48.61947800;9.05303100;2024-01-06T02:33:30;3.20;;;1.30;;
7823;SDS011;3957;48.61947800;9.05303100;2024-01-06T02:34:32;2.65;;;1.60;;
7823;SDS011;3957;48.61947800;9.05303100;2024-01-06T02:35:34;1.67;;;1.45;;
7823;SDS011;3957;48.61947800;9.05303100;2024-01-06T02:36:36;2.75;;;1.25;;
7823;SDS011;3957;48.61947800;9.05303100;2024-01-06T02:37:38;1.53;;;1.30;;
7823;SDS011;3957;48.61947800;9.05303100;2024-01-06T02:38:39;1.67;;;1.30;;
7823;SDS011;3957;48.61947800;9.05303100;2024-01-06T02:39:41;1.92;;;1.40;;
7823;SDS011;3957;48.61947800;9.05303100;2024-01-06T02:40:42;1.35;;;1.25;;
7823;SDS011;3957;48.61947800;9.05303100;2024-01-06T02:41:44;1.58;;;1.15;;
7823;SDS011;3957;48.61947800;9.05303100;2024-01-06T02:42:45;1.60;;;1.30;;
7823;SDS011;3957;48.61947800;9.05303100;2024-01-06T02:43:47;2.13;;;1.27;;
7823;SDS011;3957;48.61947800;9.05303100;2024-01-06T02:44:49;1.40;;;1.30;;
7823;SDS011;3957;48.61947800;9.05303100;2024-01-06T02:45:51;2.50;;;1.20;;
7823;SDS011;3957;48.61947800;9.05303100;2024-01-06T02:46:52;1.50;;;1.30;;
7823;SDS011;3957;48.61947800;9.05303100;2024-01-06T02:47:55;2.65;;;1.20;;
7823;SDS011;3957;48.61947800;9.05303100;2024-01-06T02:48:57;3.55;;;1.55;;
7823;SDS011;3957;48.61947800;9.05303100;2024-01-06T02:49:58;3.20;;;1.20;;
7823;SDS011;3957;48.61947800;9.05303100;2024-01-06T02:51:00;2.70;;;1.38;;
7823;SDS011;3957;48.61947800;9.05303100;2024-01-06T02:52:02;1.83;;;1.40;;
7823;SDS011;3957;48.61947800;9.05303100;2024-01-06T02:53:04;3.60;;;1.63;;
7823;SDS011;3957;48.61947800;9.05303100;2024-01-06T02:54:05;2.22;;;1.48;;
7823;SDS011;3957;48.61947800;9.05303100;2024-01-06T02:55:07;1.70;;;1.58;;
7823;SDS011;3957;48.61947800;9.05303100;2024-01-06T02:56:09;3.15;;;1.63;;
7823;SDS011;3957;48.61947800;9.05303100;2024-01-06T02:57:12;3.45;;;1.42;;
7823;SDS011;3957;48.61947800;9.05303100;2024-01-06T02:58:14;2.88;;;1.77;;
7823;SDS011;3957;48.61947800;9.05303100;2024-01-06T02:59:16;7.28;;;2.10;;
7823;SDS011;3957;48.61947800;9.05303100;2024-01-06T03:00:17;3.95;;;2.05;;
7823;SDS011;3957;48.61947800;9.05303100;2024-01-06T03:01:19;2.70;;;1.80;;
7823;SDS011;3957;48.61947800;9.05303100;2024-01-06T03:02:21;5.60;;;1.80;;
7823;SDS011;3957;48.61947800;9.05303100;2024-01-06T03:03:22;3.17;;;1.70;;
7823;SDS011;3957;48.61947800;9.05303100;2024-01-06T03:04:24;4.60;;;2.08;;
7823;SDS011;3957;48.61947800;9.05303100;2024-01-06T03:05:26;2.35;;;1.80;;
7823;SDS011;3957;48.61947800;9.05303100;2024-01-06T03:06:27;1.88;;;1.48;;
7823;SDS011;3957;48.61947800;9.05303100;2024-01-06T03:07:29;3.72;;;1.80;;
7823;SDS011;3957;48.61947800;9.05303100;2024-01-06T03:08:30;2.15;;;1.75;;
7823;SDS011;3957;48.61947800;9.05303100;2024-01-06T03:09:32;3.25;;;1.42;;
7823;SDS011;3957;48.61947800;9.05303100;2024-01-06T03:10:34;2.47;;;1.73;;
7823;SDS011;3957;48.61947800;9.05303100;2024-01-06T03:11:35;2.55;;;1.65;;
7823;SDS011;3957;48.61947800;9.05303100;2024-01-06T03:12:37;2.65;;;1.58;;
7823;SDS011;3957;48.61947800;9.05303100;2024-01-06T03:13:39;3.20;;;1.50;;
7823;SDS011;3957;48.61947800;9.05303100;2024-01-06T03:14:40;2.13;;;1.55;;
7823;SDS011;3957;48.61947800;9.05303100;2024-01-06T03:15:42;2.57;;;1.50;;
7823;SDS011;3957;48.61947800;9.05303100;2024-01-06T03:16:44;1.52;;;1.38;;
7823;SDS011;3957;48.61947800;9.05303100;2024-01-06T03:17:45;3.40;;;1.60;;
7823;SDS011;3957;48.61947800;9.05303100;2024-01-06T03:18:47;2.08;;;1.45;;
7823;SDS011;3957;48.61947800;9.05303100;2024-01-06T03:19:49;2.70;;;1.58;;
7823;SDS011;3957;48.61947800;9.05303100;2024-01-06T03:20:51;1.90;;;1.40;;
7823;SDS011;3957;48.61947800;9.05303100;2024-01-06T03:21:53;1.57;;;1.47;;
7823;SDS011;3957;48.61947800;9.05303100;2024-01-06T03:22:54;2.30;;;1.60;;
7823;SDS011;3957;48.61947800;9.05303100;2024-01-06T03:23:56;3.28;;;1.73;;
7823;SDS011;3957;48.61947800;9.05303100;2024-01-06T03:24:58;3.13;;;1.50;;
7823;SDS011;3957;48.61947800;9.05303100;2024-01-06T03:26:04;1.67;;;1.42;;
7823;SDS011;3957;48.61947800;9.05303100;2024-01-06T03:27:07;4.40;;;1.80;;
7823;SDS011;3957;48.61947800;9.05303100;2024-01-06T03:28:10;3.13;;;1.65;;
7823;SDS011;3957;48.61947800;9.05303100;2024-01-06T03:29:11;5.68;;;1.73;;
7823;SDS011;3957;48.61947800;9.05303100;2024-01-06T03:30:13;3.35;;;1.70;;
7823;SDS011;3957;48.61947800;9.05303100;2024-01-06T03:31:14;2.38;;;1.58;;
7823;SDS011;3957;48.61947800;9.05303100;2024-01-06T03:32:16;2.15;;;1.60;;
7823;SDS011;3957;48.61947800;9.05303100;2024-01-06T03:33:18;2.17;;;1.38;;
7823;SDS011;3957;48.61947800;9.05303100;2024-01-06T03:34:19;2.30;;;1.50;;
7823;SDS011;3957;48.61947800;9.05303100;2024-01-06T03:35:21;2.00;;;1.60;;
7823;SDS011;3957;48.61947800;9.05303100;2024-01-06T03:36:23;1.75;;;1.50;;
7823;SDS011;3957;48.61947800;9.05303100;2024-01-06T03:37:24;2.58;;;1.60;;
7823;SDS011;3957;48.61947800;9.05303100;2024-01-06T03:38:26;2.22;;;1.58;;
7823;SDS011;3957;48.61947800;9.05303100;2024-01-06T03:39:28;2.70;;;1.58;;
7823;SDS011;3957;48.61947800;9.05303100;2024-01-06T03:40:29;3.40;;;1.60;;
7823;SDS011;3957;48.61947800;9.05303100;2024-01-06T03:41:31;3.25;;;1.60;;
7823;SDS011;3957;48.61947800;9.05303100;2024-01-06T03:42:33;1.77;;;1.45;;
7823;SDS011;3957;48.61947800;9.05303100;2024-01-06T03:43:34;1.95;;;1.35;;
7823;SDS011;3957;48.61947800;9.05303100;2024-01-06T03:44:36;4.20;;;1.50;;
7823;SDS011;3957;48.61947800;9.05303100;2024-01-06T03:45:37;4.05;;;1.40;;
7823;SDS011;3957;48.61947800;9.05303100;2024-01-06T03:46:39;6.55;;;1.50;;
7823;SDS011;3957;48.61947800;9.05303100;2024-01-06T03:47:40;4.28;;;1.73;;
7823;SDS011;3957;48.61947800;9.05303100;2024-01-06T03:48:42;2.00;;;1.52;;
7823;SDS011;3957;48.61947800;9.05303100;2024-01-06T03:49:44;2.90;;;1.52;;
7823;SDS011;3957;48.61947800;9.05303100;2024-01-06T03:50:46;1.67;;;1.50;;
7823;SDS011;3957;48.61947800;9.05303100;2024-01-06T03:51:47;4.40;;;1.42;;
7823;SDS011;3957;48.61947800;9.05303100;2024-01-06T03:52:49;2.35;;;1.60;;
7823;SDS011;3957;48.61947800;9.05303100;2024-01-06T03:53:50;2.10;;;1.70;;
7823;SDS011;3957;48.61947800;9.05303100;2024-01-06T03:54:52;2.08;;;1.27;;
7823;SDS011;3957;48.61947800;9.05303100;2024-01-06T03:55:53;4.40;;;1.88;;
7823;SDS011;3957;48.61947800;9.05303100;2024-01-06T03:56:55;2.10;;;1.50;;
7823;SDS011;3957;48.61947800;9.05303100;2024-01-06T03:57:57;3.70;;;1.60;;
7823;SDS011;3957;48.61947800;9.05303100;2024-01-06T03:58:58;2.65;;;1.63;;
7823;SDS011;3957;48.61947800;9.05303100;2024-01-06T04:00:00;2.47;;;1.45;;
7823;SDS011;3957;48.61947800;9.05303100;2024-01-06T04:01:04;2.45;;;1.40;;
7823;SDS011;3957;48.61947800;9.05303100;2024-01-06T04:02:06;1.98;;;1.30;;
7823;SDS011;3957;48.61947800;9.05303100;2024-01-06T04:03:07;2.15;;;1.58;;
7823;SDS011;3957;48.61947800;9.05303100;2024-01-06T04:04:10;2.83;;;1.25;;
7823;SDS011;3957;48.61947800;9.05303100;2024-01-06T04:05:11;2.13;;;1.42;;
7823;SDS011;3957;48.61947800;9.05303100;2024-01-06T04:06:13;2.78;;;1.55;;
7823;SDS011;3957;48.61947800;9.05303100;2024-01-06T04:07:15;3.50;;;1.50;;
7823;SDS011;3957;48.61947800;9.05303100;2024-01-06T04:08:17;2.28;;;1.23;;
7823;SDS011;3957;48.61947800;9.05303100;2024-01-06T04:09:19;1.90;;;1.50;;
7823;SDS011;3957;48.61947800;9.05303100;2024-01-06T04:10:20;3.00;;;1.25;;
7823;SDS011;3957;48.61947800;9.05303100;2024-01-06T04:11:22;1.73;;;1.40;;
7823;SDS011;3957;48.61947800;9.05303100;2024-01-06T04:12:23;3.90;;;1.50;;
7823;SDS011;3957;48.61947800;9.05303100;2024-01-06T04:13:25;4.75;;;1.83;;
7823;SDS011;3957;48.61947800;9.05303100;2024-01-06T04:14:27;2.50;;;1.52;;
7823;SDS011;3957;48.61947800;9.05303100;2024-01-06T04:15:28;1.63;;;1.40;;
7823;SDS011;3957;48.61947800;9.05303100;2024-01-06T04:16:30;1.95;;;1.30;;
7823;SDS011;3957;48.61947800;9.05303100;2024-01-06T04:17:31;5.30;;;1.65;;
7823;SDS011;3957;48.61947800;9.05303100;2024-01-06T04:18:33;1.85;;;1.35;;
7823;SDS011;3957;48.61947800;9.05303100;2024-01-06T04:19:35;2.00;;;1.50;;
7823;SDS011;3957;48.61947800;9.05303100;2024-01-06T04:20:36;2.80;;;1.40;;
7823;SDS011;3957;48.61947800;9.05303100;2024-01-06T04:21:38;2.70;;;1.30;;
7823;SDS011;3957;48.61947800;9.05303100;2024-01-06T04:22:40;3.50;;;1.40;;
7823;SDS011;3957;48.61947800;9.05303100;2024-01-06T04:23:42;2.22;;;1.40;;
7823;SDS011;3957;48.61947800;9.05303100;2024-01-06T04:24:43;1.70;;;1.20;;
7823;SDS011;3957;48.61947800;9.05303100;2024-01-06T04:25:45;3.15;;;1.17;;
7823;SDS011;3957;48.61947800;9.05303100;2024-01-06T04:26:47;2.03;;;1.35;;
7823;SDS011;3957;48.61947800;9.05303100;2024-01-06T04:27:49;1.88;;;1.42;;
7823;SDS011;3957;48.61947800;9.05303100;2024-01-06T04:28:51;1.90;;;1.30;;
7823;SDS011;3957;48.61947800;9.05303100;2024-01-06T04:29:53;1.83;;;1.33;;
7823;SDS011;3957;48.61947800;9.05303100;2024-01-06T04:30:54;1.25;;;1.15;;
7823;SDS011;3957;48.61947800;9.05303100;2024-01-06T04:31:56;2.22;;;1.20;;
7823;SDS011;3957;48.61947800;9.05303100;2024-01-06T04:32:57;1.43;;;1.23;;
7823;SDS011;3957;48.61947800;9.05303100;2024-01-06T04:33:59;1.30;;;1.20;;
7823;SDS011;3957;48.61947800;9.05303100;2024-01-06T04:35:01;1.40;;;1.17;;
7823;SDS011;3957;48.61947800;9.05303100;2024-01-06T04:36:02;2.38;;;1.40;;
7823;SDS011;3957;48.61947800;9.05303100;2024-01-06T04:37:05;2.10;;;1.25;;
7823;SDS011;3957;48.61947800;9.05303100;2024-01-06T04:38:06;1.20;;;1.13;;
7823;SDS011;3957;48.61947800;9.05303100;2024-01-06T04:39:07;2.30;;;1.20;;
7823;SDS011;3957;48.61947800;9.05303100;2024-01-06T04:40:09;1.80;;;1.15;;
7823;SDS011;3957;48.61947800;9.05303100;2024-01-06T04:41:12;1.40;;;1.30;;
7823;SDS011;3957;48.61947800;9.05303100;2024-01-06T04:42:13;1.55;;;1.20;;
7823;SDS011;3957;48.61947800;9.05303100;2024-01-06T04:43:15;4.70;;;1.13;;
7823;SDS011;3957;48.61947800;9.05303100;2024-01-06T04:44:19;1.48;;;1.38;;
7823;SDS011;3957;48.61947800;9.05303100;2024-01-06T04:45:21;1.42;;;1.20;;
7823;SDS011;3957;48.61947800;9.05303100;2024-01-06T04:46:25;3.35;;;1.27;;
7823;SDS011;3957;48.61947800;9.05303100;2024-01-06T04:47:26;3.85;;;1.20;;
7823;SDS011;3957;48.61947800;9.05303100;2024-01-06T04:48:29;1.80;;;1.20;;
7823;SDS011;3957;48.61947800;9.05303100;2024-01-06T04:49:30;4.03;;;1.20;;
7823;SDS011;3957;48.61947800;9.05303100;2024-01-06T04:50:32;1.40;;;1.30;;
7823;SDS011;3957;48.61947800;9.05303100;2024-01-06T04:51:34;2.10;;;1.35;;
7823;SDS011;3957;48.61947800;9.05303100;2024-01-06T04:52:36;1.23;;;1.00;;
7823;SDS011;3957;48.61947800;9.05303100;2024-01-06T04:53:37;2.77;;;1.20;;
7823;SDS011;3957;48.61947800;9.05303100;2024-01-06T04:54:39;1.33;;;1.23;;
7823;SDS011;3957;48.61947800;9.05303100;2024-01-06T04:55:41;2.05;;;1.20;;
7823;SDS011;3957;48.61947800;9.05303100;2024-01-06T04:56:42;3.92;;;1.63;;
7823;SDS011;3957;48.61947800;9.05303100;2024-01-06T04:57:44;1.88;;;1.20;;
7823;SDS011;3957;48.61947800;9.05303100;2024-01-06T04:58:45;1.55;;;1.02;;
7823;SDS011;3957;48.61947800;9.05303100;2024-01-06T04:59:47;1.38;;;1.27;;
7823;SDS011;3957;48.61947800;9.05303100;2024-01-06T05:00:48;2.90;;;1.63;;
7823;SDS011;3957;48.61947800;9.05303100;2024-01-06T05:01:52;2.53;;;1.38;;
7823;SDS011;3957;48.61947800;9.05303100;2024-01-06T05:02:54;1.25;;;1.08;;
7823;SDS011;3957;48.61947800;9.05303100;2024-01-06T05:03:56;1.83;;;1.00;;
7823;SDS011;3957;48.61947800;9.05303100;2024-01-06T05:04:58;1.88;;;1.20;;
7823;SDS011;3957;48.61947800;9.05303100;2024-01-06T05:05:59;3.20;;;1.30;;
7823;SDS011;3957;48.61947800;9.05303100;2024-01-06T05:07:01;1.57;;;1.20;;
7823;SDS011;3957;48.61947800;9.05303100;2024-01-06T05:08:03;2.45;;;1.30;;
7823;SDS011;3957;48.61947800;9.05303100;2024-01-06T05:09:05;2.45;;;1.20;;
7823;SDS011;3957;48.61947800;9.05303100;2024-01-06T05:10:06;1.23;;;1.13;;
7823;SDS011;3957;48.61947800;9.05303100;2024-01-06T05:11:08;2.70;;;1.20;;
7823;SDS011;3957;48.61947800;9.05303100;2024-01-06T05:12:10;1.15;;;1.05;;
7823;SDS011;3957;48.61947800;9.05303100;2024-01-06T05:13:11;3.55;;;1.58;;
7823;SDS011;3957;48.61947800;9.05303100;2024-01-06T05:14:13;4.53;;;1.38;;
7823;SDS011;3957;48.61947800;9.05303100;2024-01-06T05:15:14;2.45;;;1.10;;
7823;SDS011;3957;48.61947800;9.05303100;2024-01-06T05:16:16;1.90;;;1.23;;
7823;SDS011;3957;48.61947800;9.05303100;2024-01-06T05:17:17;5.15;;;1.65;;
7823;SDS011;3957;48.61947800;9.05303100;2024-01-06T05:18:19;2.60;;;1.23;;
7823;SDS011;3957;48.61947800;9.05303100;2024-01-06T05:19:21;4.00;;;1.30;;
7823;SDS011;3957;48.61947800;9.05303100;2024-01-06T05:20:23;1.20;;;1.10;;
7823;SDS011;3957;48.61947800;9.05303100;2024-01-06T05:21:24;1.42;;;1.02;;
7823;SDS011;3957;48.61947800;9.05303100;2024-01-06T05:22:27;2.35;;;1.40;;
7823;SDS011;3957;48.61947800;9.05303100;2024-01-06T05:23:28;3.58;;;1.45;;
7823;SDS011;3957;48.61947800;9.05303100;2024-01-06T05:24:30;1.42;;;1.20;;
7823;SDS011;3957;48.61947800;9.05303100;2024-01-06T05:25:32;1.52;;;1.20;;
7823;SDS011;3957;48.61947800;9.05303100;2024-01-06T05:26:33;1.38;;;1.00;;
7823;SDS011;3957;48.61947800;9.05303100;2024-01-06T05:27:35;2.17;;;1.20;;
7823;SDS011;3957;48.61947800;9.05303100;2024-01-06T05:28:37;1.80;;;1.20;;
7823;SDS011;3957;48.61947800;9.05303100;2024-01-06T05:29:38;1.00;;;1.00;;
7823;SDS011;3957;48.61947800;9.05303100;2024-01-06T05:30:39;1.10;;;1.10;;
7823;SDS011;3957;48.61947800;9.05303100;2024-01-06T05:31:41;1.58;;;1.15;;
7823;SDS011;3957;48.61947800;9.05303100;2024-01-06T05:32:43;1.70;;;1.17;;